createdAt,value
2023-05-19T06:41:59.165Z,62.47
2023-05-19T06:45:39.092Z,62.32
2023-05-19T06:48:54.307Z,62.23
2023-05-19T06:51:44.546Z,62.24
2023-05-19T06:54:23.534Z,62.22
2023-05-19T06:57:23.149Z,61.82
2023-05-19T07:00:33.856Z,61.67
2023-05-19T07:04:13.182Z,61.64
2023-05-19T07:08:50.864Z,61.52
2023-05-19T07:18:31.884Z,61.56
2023-05-19T07:21:29.815Z,61.60
2023-05-19T07:28:46.271Z,61.30
2023-05-19T07:32:08.930Z,61.27
2023-05-19T07:34:50.541Z,61.36
2023-05-19T07:37:59.623Z,61.48
2023-05-19T07:41:27.105Z,61.64
2023-05-19T07:44:45.835Z,61.76
2023-05-19T07:47:37.780Z,61.69
2023-05-19T07:50:55.345Z,61.68
2023-05-19T07:53:54.170Z,61.36
2023-05-19T07:56:43.029Z,61.24
2023-05-19T07:59:13.610Z,60.97
2023-05-19T08:01:47.405Z,60.69
2023-05-19T08:04:36.292Z,60.54
2023-05-19T08:07:27.330Z,60.44
2023-05-19T08:10:01.666Z,60.66
2023-05-19T08:12:41.906Z,60.69
2023-05-19T08:15:13.415Z,60.95
2023-05-19T08:18:10.706Z,60.76
2023-05-19T08:20:38.940Z,60.71
2023-05-19T08:23:27.244Z,60.62
2023-05-19T08:37:00.149Z,59.97
2023-05-19T08:39:49.952Z,59.54
2023-05-19T08:43:03.249Z,59.97
2023-05-19T08:46:08.477Z,60.33
2023-05-19T08:49:05.238Z,61.07
2023-05-19T08:52:21.379Z,62.19
2023-05-19T08:55:17.421Z,63.09
2023-05-19T08:57:51.344Z,62.99
2023-05-19T09:00:24.431Z,62.47
2023-05-19T09:03:17.725Z,61.92
2023-05-19T09:06:02.206Z,61.98
2023-05-19T09:08:47.573Z,62.00
2023-05-19T09:11:40.234Z,61.83
2023-05-19T09:14:10.093Z,61.70
2023-05-19T09:16:48.694Z,61.85
2023-05-19T09:19:48.725Z,61.34
2023-05-19T09:22:28.086Z,60.94
2023-05-19T09:24:59.511Z,60.64
2023-05-19T09:27:41.734Z,60.37
2023-05-19T09:30:33.283Z,60.14
2023-05-19T09:33:31.958Z,60.19
2023-05-19T09:36:14.530Z,60.14
2023-05-19T09:39:13.708Z,59.74
2023-05-19T09:42:17.482Z,58.80
2023-05-19T09:45:34.838Z,58.08
2023-05-19T09:48:50.758Z,58.10
2023-05-19T09:52:30.816Z,58.18
2023-05-19T09:56:03.992Z,58.87
2023-05-19T09:59:15.927Z,59.26
2023-05-19T10:01:52.794Z,59.75
2023-05-19T10:04:27.594Z,60.16
2023-05-19T10:07:16.215Z,60.12
2023-05-19T10:09:49.668Z,60.12
2023-05-19T10:13:09.566Z,59.94
2023-05-19T10:15:57.024Z,60.07
2023-05-19T10:18:50.866Z,60.12
2023-05-19T10:21:51.314Z,60.40
2023-05-19T10:24:26.998Z,60.81
2023-05-19T10:27:12.599Z,61.33
2023-05-19T10:29:51.592Z,61.05
2023-05-19T10:32:32.671Z,60.70
2023-05-19T10:35:47.499Z,61.01
2023-05-19T10:38:29.605Z,60.74
2023-05-19T10:41:57.921Z,60.83
2023-05-19T10:45:26.764Z,60.38
2023-05-19T10:48:26.034Z,60.39
2023-05-19T10:51:32.528Z,60.27
2023-05-19T10:54:41.469Z,60.02
2023-05-19T10:57:17.133Z,59.86
2023-05-19T11:00:33.284Z,59.83
2023-05-19T11:03:59.841Z,59.85
2023-05-19T11:06:32.672Z,60.17
2023-05-19T11:09:37.894Z,60.32
2023-05-19T11:12:12.261Z,60.48
2023-05-19T11:14:45.262Z,60.54
2023-05-19T11:17:24.664Z,60.51
